sensor_id;sensor_type;location;lat;lon;timestamp;pressure;altitude;pressure_sealevel;temperature;humidity
49843;BME280;55559;48.898;9.184;2023-05-09T00:02:18;98746.88;;;13.46;100.00
49843;BME280;55559;48.898;9.184;2023-05-09T00:04:45;98743.81;;;13.41;100.00
49843;BME280;55559;48.898;9.184;2023-05-09T00:07:16;98737.03;;;13.47;100.00
49843;BME280;55559;48.898;9.184;2023-05-09T00:09:44;98720.56;;;13.51;100.00
49843;BME280;55559;48.898;9.184;2023-05-09T00:12:11;98719.25;;;13.55;100.00
49843;BME280;55559;48.898;9.184;2023-05-09T00:14:39;98723.09;;;13.53;100.00
49843;BME280;55559;48.898;9.184;2023-05-09T00:17:06;98721.00;;;13.47;100.00
49843;BME280;55559;48.898;9.184;2023-05-09T00:19:34;98716.63;;;13.46;100.00
49843;BME280;55559;48.898;9.184;2023-05-09T00:22:02;98712.59;;;13.42;100.00
49843;BME280;55559;48.898;9.184;2023-05-09T00:24:31;98712.44;;;13.43;100.00
49843;BME280;55559;48.898;9.184;2023-05-09T00:26:59;98707.09;;;13.43;100.00
49843;BME280;55559;48.898;9.184;2023-05-09T00:29:26;98704.56;;;13.42;100.00
49843;BME280;55559;48.898;9.184;2023-05-09T00:31:53;98700.38;;;13.39;100.00
49843;BME280;55559;48.898;9.184;2023-05-09T00:34:21;98701.38;;;13.38;100.00
49843;BME280;55559;48.898;9.184;2023-05-09T00:36:49;98692.81;;;13.34;100.00
49843;BME280;55559;48.898;9.184;2023-05-09T00:39:17;98693.78;;;13.33;100.00
49843;BME280;55559;48.898;9.184;2023-05-09T00:41:45;98696.03;;;13.38;100.00
49843;BME280;55559;48.898;9.184;2023-05-09T00:44:13;98696.88;;;13.29;100.00
49843;BME280;55559;48.898;9.184;2023-05-09T00:46:40;98691.53;;;13.29;100.00
49843;BME280;55559;48.898;9.184;2023-05-09T00:49:08;98693.78;;;13.33;100.00
49843;BME280;55559;48.898;9.184;2023-05-09T00:51:42;98680.69;;;13.30;100.00
49843;BME280;55559;48.898;9.184;2023-05-09T00:54:14;98684.22;;;13.31;100.00
49843;BME280;55559;48.898;9.184;2023-05-09T00:56:42;98684.81;;;13.34;100.00
49843;BME280;55559;48.898;9.184;2023-05-09T00:59:17;98682.13;;;13.34;100.00
49843;BME280;55559;48.898;9.184;2023-05-09T01:01:45;98685.78;;;13.33;100.00
49843;BME280;55559;48.898;9.184;2023-05-09T01:04:13;98684.50;;;13.37;100.00
49843;BME280;55559;48.898;9.184;2023-05-09T01:06:47;98683.66;;;13.37;100.00
49843;BME280;55559;48.898;9.184;2023-05-09T01:09:25;98675.03;;;13.43;100.00
49843;BME280;55559;48.898;9.184;2023-05-09T01:12:02;98673.06;;;13.45;100.00
49843;BME280;55559;48.898;9.184;2023-05-09T01:14:38;98667.47;;;13.38;100.00
49843;BME280;55559;48.898;9.184;2023-05-09T01:17:13;98666.66;;;13.38;100.00
49843;BME280;55559;48.898;9.184;2023-05-09T01:19:53;98668.78;;;13.34;100.00
49843;BME280;55559;48.898;9.184;2023-05-09T01:22:27;98663.31;;;13.26;100.00
49843;BME280;55559;48.898;9.184;2023-05-09T01:25:27;98669.69;;;13.15;100.00
49843;BME280;55559;48.898;9.184;2023-05-09T01:27:59;98675.47;;;13.11;100.00
49843;BME280;55559;48.898;9.184;2023-05-09T01:30:33;98672.94;;;13.09;100.00
49843;BME280;55559;48.898;9.184;2023-05-09T01:33:05;98676.44;;;13.10;100.00
49843;BME280;55559;48.898;9.184;2023-05-09T01:35:36;98676.44;;;13.10;100.00
49843;BME280;55559;48.898;9.184;2023-05-09T01:38:09;98667.75;;;13.08;100.00
49843;BME280;55559;48.898;9.184;2023-05-09T01:40:41;98667.06;;;13.06;100.00
49843;BME280;55559;48.898;9.184;2023-05-09T01:43:10;98669.00;;;13.03;100.00
49843;BME280;55559;48.898;9.184;2023-05-09T01:45:42;98665.38;;;13.05;100.00
49843;BME280;55559;48.898;9.184;2023-05-09T01:48:11;98663.38;;;13.07;100.00
49843;BME280;55559;48.898;9.184;2023-05-09T01:50:40;98661.13;;;13.12;100.00
49843;BME280;55559;48.898;9.184;2023-05-09T01:53:13;98661.13;;;13.12;100.00
49843;BME280;55559;48.898;9.184;2023-05-09T01:55:42;98655.63;;;13.13;100.00
49843;BME280;55559;48.898;9.184;2023-05-09T01:58:12;98651.16;;;13.14;100.00
49843;BME280;55559;48.898;9.184;2023-05-09T02:00:43;98655.34;;;13.16;100.00
49843;BME280;55559;48.898;9.184;2023-05-09T02:03:13;98651.97;;;13.14;100.00
49843;BME280;55559;48.898;9.184;2023-05-09T02:05:42;98652.97;;;13.13;100.00
49843;BME280;55559;48.898;9.184;2023-05-09T02:08:10;98651.94;;;13.24;100.00
49843;BME280;55559;48.898;9.184;2023-05-09T02:10:40;98647.88;;;13.20;100.00
49843;BME280;55559;48.898;9.184;2023-05-09T02:13:08;98647.03;;;13.19;100.00
49843;BME280;55559;48.898;9.184;2023-05-09T02:15:36;98651.69;;;13.17;100.00
49843;BME280;55559;48.898;9.184;2023-05-09T02:18:06;98648.88;;;13.19;100.00
49843;BME280;55559;48.898;9.184;2023-05-09T02:20:33;98648.34;;;13.15;100.00
49843;BME280;55559;48.898;9.184;2023-05-09T02:23:01;98644.50;;;13.18;100.00
49843;BME280;55559;48.898;9.184;2023-05-09T02:25:30;98645.88;;;13.22;100.00
49843;BME280;55559;48.898;9.184;2023-05-09T02:27:58;98649.94;;;13.26;100.00
49843;BME280;55559;48.898;9.184;2023-05-09T02:30:31;98642.47;;;13.30;100.00
49843;BME280;55559;48.898;9.184;2023-05-09T02:33:03;98651.31;;;13.30;100.00
49843;BME280;55559;48.898;9.184;2023-05-09T02:35:34;98642.75;;;13.36;100.00
49843;BME280;55559;48.898;9.184;2023-05-09T02:38:02;98645.81;;;13.42;100.00
49843;BME280;55559;48.898;9.184;2023-05-09T02:40:33;98631.63;;;13.41;100.00
49843;BME280;55559;48.898;9.184;2023-05-09T02:43:02;98629.63;;;13.43;100.00
49843;BME280;55559;48.898;9.184;2023-05-09T02:45:29;98629.50;;;13.45;100.00
49843;BME280;55559;48.898;9.184;2023-05-09T02:47:57;98615.69;;;13.49;100.00
49843;BME280;55559;48.898;9.184;2023-05-09T02:50:25;98611.56;;;13.55;100.00
49843;BME280;55559;48.898;9.184;2023-05-09T02:52:54;98603.00;;;13.51;100.00
49843;BME280;55559;48.898;9.184;2023-05-09T02:55:21;98607.97;;;13.46;100.00
49843;BME280;55559;48.898;9.184;2023-05-09T02:57:50;98603.59;;;13.45;100.00
49843;BME280;55559;48.898;9.184;2023-05-09T03:00:18;98600.09;;;13.45;100.00
49843;BME280;55559;48.898;9.184;2023-05-09T03:02:46;98594.31;;;13.49;100.00
49843;BME280;55559;48.898;9.184;2023-05-09T03:05:15;98596.84;;;13.51;100.00
49843;BME280;55559;48.898;9.184;2023-05-09T03:07:43;98596.66;;;13.52;100.00
49843;BME280;55559;48.898;9.184;2023-05-09T03:10:12;98595.59;;;13.45;100.00
49843;BME280;55559;48.898;9.184;2023-05-09T03:12:41;98588.75;;;13.43;100.00
49843;BME280;55559;48.898;9.184;2023-05-09T03:15:09;98595.06;;;13.42;100.00
49843;BME280;55559;48.898;9.184;2023-05-09T03:17:39;98590.00;;;13.38;100.00
49843;BME280;55559;48.898;9.184;2023-05-09T03:20:08;98588.09;;;13.31;100.00
49843;BME280;55559;48.898;9.184;2023-05-09T03:22:39;98591.88;;;13.28;100.00
49843;BME280;55559;48.898;9.184;2023-05-09T03:25:08;98583.78;;;13.20;100.00
49843;BME280;55559;48.898;9.184;2023-05-09T03:27:37;98592.09;;;13.17;100.00
49843;BME280;55559;48.898;9.184;2023-05-09T03:30:17;98586.44;;;13.20;100.00
49843;BME280;55559;48.898;9.184;2023-05-09T03:32:48;98575.69;;;13.12;100.00
49843;BME280;55559;48.898;9.184;2023-05-09T03:35:16;98573.72;;;13.14;100.00
49843;BME280;55559;48.898;9.184;2023-05-09T03:37:43;98561.75;;;13.18;100.00
49843;BME280;55559;48.898;9.184;2023-05-09T03:40:11;98572.47;;;13.08;100.00
49843;BME280;55559;48.898;9.184;2023-05-09T03:42:47;98574.31;;;13.08;100.00
49843;BME280;55559;48.898;9.184;2023-05-09T03:45:14;98577.91;;;13.16;100.00
49843;BME280;55559;48.898;9.184;2023-05-09T03:47:43;98574.66;;;13.23;100.00
49843;BME280;55559;48.898;9.184;2023-05-09T03:50:11;98566.50;;;13.24;100.00
49843;BME280;55559;48.898;9.184;2023-05-09T03:52:39;98572.66;;;13.25;100.00
49843;BME280;55559;48.898;9.184;2023-05-09T03:55:08;98574.50;;;13.24;100.00
49843;BME280;55559;48.898;9.184;2023-05-09T03:57:36;98571.34;;;13.29;100.00
49843;BME280;55559;48.898;9.184;2023-05-09T04:00:07;98585.19;;;13.24;100.00
49843;BME280;55559;48.898;9.184;2023-05-09T04:02:48;98586.16;;;13.23;100.00
49843;BME280;55559;48.898;9.184;2023-05-09T04:05:26;98586.00;;;13.25;100.00
49843;BME280;55559;48.898;9.184;2023-05-09T04:07:54;98589.28;;;13.18;100.00
49843;BME280;55559;48.898;9.184;2023-05-09T04:10:22;98586.31;;;13.21;100.00
49843;BME280;55559;48.898;9.184;2023-05-09T04:12:50;98578.34;;;13.12;100.00
49843;BME280;55559;48.898;9.184;2023-05-09T04:15:19;98580.88;;;13.13;100.00
49843;BME280;55559;48.898;9.184;2023-05-09T04:17:48;98580.44;;;13.18;100.00
49843;BME280;55559;48.898;9.184;2023-05-09T04:20:15;98593.19;;;13.24;100.00
49843;BME280;55559;48.898;9.184;2023-05-09T04:22:43;98591.19;;;13.36;100.00
49843;BME280;55559;48.898;9.184;2023-05-09T04:25:11;98581.47;;;13.35;100.00
49843;BME280;55559;48.898;9.184;2023-05-09T04:27:40;98574.22;;;13.45;100.00
49843;BME280;55559;48.898;9.184;2023-05-09T04:30:09;98580.25;;;13.47;100.00
49843;BME280;55559;48.898;9.184;2023-05-09T04:32:41;98574.06;;;13.47;100.00
49843;BME280;55559;48.898;9.184;2023-05-09T04:35:14;98573.69;;;13.42;100.00
49843;BME280;55559;48.898;9.184;2023-05-09T04:37:44;98581.47;;;13.35;100.00
49843;BME280;55559;48.898;9.184;2023-05-09T04:40:12;98584.69;;;13.38;100.00
49843;BME280;55559;48.898;9.184;2023-05-09T04:42:52;98582.47;;;13.52;100.00
49843;BME280;55559;48.898;9.184;2023-05-09T04:45:25;98589.59;;;13.61;100.00
49843;BME280;55559;48.898;9.184;2023-05-09T04:47:55;98589.47;;;13.71;100.00
49843;BME280;55559;48.898;9.184;2023-05-09T04:50:22;98582.31;;;13.71;100.00
49843;BME280;55559;48.898;9.184;2023-05-09T04:52:50;98585.00;;;13.71;100.00
49843;BME280;55559;48.898;9.184;2023-05-09T04:55:18;98576.19;;;13.79;100.00
49843;BME280;55559;48.898;9.184;2023-05-09T04:57:47;98579.25;;;13.84;100.00
49843;BME280;55559;48.898;9.184;2023-05-09T05:00:15;98573.59;;;13.87;100.00
49843;BME280;55559;48.898;9.184;2023-05-09T05:02:45;98572.31;;;13.91;100.00
49843;BME280;55559;48.898;9.184;2023-05-09T05:05:14;98573.50;;;13.97;100.00
49843;BME280;55559;48.898;9.184;2023-05-09T05:07:42;98562.19;;;14.03;100.00
49843;BME280;55559;48.898;9.184;2023-05-09T05:10:14;98562.41;;;14.10;100.00
49843;BME280;55559;48.898;9.184;2023-05-09T05:12:52;98560.63;;;14.19;100.00
49843;BME280;55559;48.898;9.184;2023-05-09T05:15:21;98569.63;;;14.18;100.00
49843;BME280;55559;48.898;9.184;2023-05-09T05:17:48;98564.97;;;14.20;100.00
49843;BME280;55559;48.898;9.184;2023-05-09T05:20:22;98567.53;;;14.29;100.00
49843;BME280;55559;48.898;9.184;2023-05-09T05:22:53;98561.41;;;14.37;100.00
49843;BME280;55559;48.898;9.184;2023-05-09T05:25:21;98563.13;;;14.46;100.00
49843;BME280;55559;48.898;9.184;2023-05-09T05:28:00;98555.44;;;14.51;100.00
49843;BME280;55559;48.898;9.184;2023-05-09T05:30:28;98554.31;;;14.54;100.00
49843;BME280;55559;48.898;9.184;2023-05-09T05:32:55;98556.81;;;14.56;100.00
49843;BME280;55559;48.898;9.184;2023-05-09T05:35:26;98554.59;;;14.69;100.00
49843;BME280;55559;48.898;9.184;2023-05-09T05:37:55;98545.19;;;14.65;100.00
49843;BME280;55559;48.898;9.184;2023-05-09T05:40:23;98545.72;;;14.77;100.00
49843;BME280;55559;48.898;9.184;2023-05-09T05:42:53;98544.78;;;14.86;100.00
49843;BME280;55559;48.898;9.184;2023-05-09T05:45:22;98545.97;;;15.00;100.00
49843;BME280;55559;48.898;9.184;2023-05-09T05:47:53;98545.31;;;14.98;100.00
49843;BME280;55559;48.898;9.184;2023-05-09T05:50:23;98543.00;;;15.03;100.00
49843;BME280;55559;48.898;9.184;2023-05-09T05:52:53;98534.78;;;15.04;100.00
49843;BME280;55559;48.898;9.184;2023-05-09T05:55:21;98530.78;;;15.09;100.00
49843;BME280;55559;48.898;9.184;2023-05-09T05:57:49;98530.78;;;15.09;100.00
49843;BME280;55559;48.898;9.184;2023-05-09T06:00:18;98530.28;;;15.13;100.00
49843;BME280;55559;48.898;9.184;2023-05-09T06:02:53;98543.19;;;15.18;100.00
49843;BME280;55559;48.898;9.184;2023-05-09T06:05:44;98529.09;;;15.16;100.00
49843;BME280;55559;48.898;9.184;2023-05-09T06:08:14;98537.66;;;15.28;100.00
49843;BME280;55559;48.898;9.184;2023-05-09T06:10:41;98528.16;;;15.41;100.00
49843;BME280;55559;48.898;9.184;2023-05-09T06:13:10;98534.50;;;15.40;100.00
49843;BME280;55559;48.898;9.184;2023-05-09T06:15:42;98526.81;;;15.62;100.00
49843;BME280;55559;48.898;9.184;2023-05-09T06:18:10;98512.75;;;15.76;100.00
49843;BME280;55559;48.898;9.184;2023-05-09T06:20:37;98512.56;;;16.19;100.00
49843;BME280;55559;48.898;9.184;2023-05-09T06:23:06;98503.41;;;16.53;100.00
49843;BME280;55559;48.898;9.184;2023-05-09T06:25:35;98507.63;;;16.79;100.00
49843;BME280;55559;48.898;9.184;2023-05-09T06:28:03;98494.34;;;18.01;100.00
49843;BME280;55559;48.898;9.184;2023-05-09T06:30:31;98495.75;;;18.86;100.00
49843;BME280;55559;48.898;9.184;2023-05-09T06:32:58;98497.69;;;18.18;100.00
49843;BME280;55559;48.898;9.184;2023-05-09T06:35:25;98489.06;;;18.08;100.00
49843;BME280;55559;48.898;9.184;2023-05-09T06:37:53;98500.00;;;18.95;100.00
49843;BME280;55559;48.898;9.184;2023-05-09T06:40:21;98492.53;;;19.12;100.00
49843;BME280;55559;48.898;9.184;2023-05-09T06:42:49;98486.31;;;17.78;100.00
49843;BME280;55559;48.898;9.184;2023-05-09T06:45:17;98488.63;;;17.66;100.00
49843;BME280;55559;48.898;9.184;2023-05-09T06:47:45;98494.53;;;17.38;100.00
49843;BME280;55559;48.898;9.184;2023-05-09T06:50:12;98486.44;;;17.84;100.00
49843;BME280;55559;48.898;9.184;2023-05-09T06:52:40;98490.19;;;17.75;100.00
49843;BME280;55559;48.898;9.184;2023-05-09T06:55:08;98485.81;;;17.97;100.00
49843;BME280;55559;48.898;9.184;2023-05-09T06:57:37;98487.41;;;18.07;100.00
49843;BME280;55559;48.898;9.184;2023-05-09T07:00:07;98487.25;;;18.08;100.00
49843;BME280;55559;48.898;9.184;2023-05-09T07:02:37;98479.66;;;17.51;100.00
49843;BME280;55559;48.898;9.184;2023-05-09T07:05:07;98481.09;;;17.61;100.00
49843;BME280;55559;48.898;9.184;2023-05-09T07:07:35;98466.47;;;17.79;100.00
49843;BME280;55559;48.898;9.184;2023-05-09T07:10:03;98469.50;;;18.44;100.00
49843;BME280;55559;48.898;9.184;2023-05-09T07:12:31;98464.91;;;18.74;100.00
49843;BME280;55559;48.898;9.184;2023-05-09T07:14:58;98465.31;;;19.07;100.00
49843;BME280;55559;48.898;9.184;2023-05-09T07:17:27;98466.72;;;18.52;100.00
49843;BME280;55559;48.898;9.184;2023-05-09T07:19:55;98458.09;;;18.27;100.00
49843;BME280;55559;48.898;9.184;2023-05-09T07:22:26;98464.31;;;18.27;100.00
49843;BME280;55559;48.898;9.184;2023-05-09T07:24:54;98458.66;;;18.52;100.00
49843;BME280;55559;48.898;9.184;2023-05-09T07:27:21;98456.97;;;18.51;100.00
49843;BME280;55559;48.898;9.184;2023-05-09T07:29:48;98450.06;;;18.63;100.00
49843;BME280;55559;48.898;9.184;2023-05-09T07:32:17;98443.50;;;18.36;100.00
49843;BME280;55559;48.898;9.184;2023-05-09T07:34:46;98433.34;;;18.68;100.00
49843;BME280;55559;48.898;9.184;2023-05-09T07:37:14;98439.81;;;18.73;100.00
49843;BME280;55559;48.898;9.184;2023-05-09T07:39:41;98434.25;;;18.75;100.00
49843;BME280;55559;48.898;9.184;2023-05-09T07:42:19;98420.25;;;18.65;100.00
49843;BME280;55559;48.898;9.184;2023-05-09T07:44:47;98416.75;;;19.01;100.00
49843;BME280;55559;48.898;9.184;2023-05-09T07:47:15;98414.16;;;19.14;100.00
49843;BME280;55559;48.898;9.184;2023-05-09T07:49:42;98412.56;;;19.20;100.00
49843;BME280;55559;48.898;9.184;2023-05-09T07:52:12;98404.00;;;19.38;100.00
49843;BME280;55559;48.898;9.184;2023-05-09T07:54:43;98407.00;;;19.21;100.00
49843;BME280;55559;48.898;9.184;2023-05-09T07:57:11;98402.28;;;19.08;100.00
49843;BME280;55559;48.898;9.184;2023-05-09T07:59:40;98391.78;;;19.13;100.00
49843;BME280;55559;48.898;9.184;2023-05-09T08:02:07;98397.19;;;19.42;100.00
49843;BME280;55559;48.898;9.184;2023-05-09T08:04:35;98393.63;;;19.35;100.00
49843;BME280;55559;48.898;9.184;2023-05-09T08:07:05;98388.97;;;19.50;100.00
49843;BME280;55559;48.898;9.184;2023-05-09T08:09:35;98384.13;;;19.67;100.00
49843;BME280;55559;48.898;9.184;2023-05-09T08:12:02;98380.28;;;19.83;100.00
49843;BME280;55559;48.898;9.184;2023-05-09T08:14:30;98375.59;;;19.98;100.00
49843;BME280;55559;48.898;9.184;2023-05-09T08:16:58;98367.94;;;19.95;100.00
49843;BME280;55559;48.898;9.184;2023-05-09T08:19:26;98371.25;;;19.69;100.00
49843;BME280;55559;48.898;9.184;2023-05-09T08:21:54;98366.19;;;19.59;100.00
49843;BME280;55559;48.898;9.184;2023-05-09T08:24:21;98361.09;;;19.71;100.00
49843;BME280;55559;48.898;9.184;2023-05-09T08:26:51;98361.78;;;19.80;100.00
49843;BME280;55559;48.898;9.184;2023-05-09T08:29:18;98354.94;;;19.49;100.00
49843;BME280;55559;48.898;9.184;2023-05-09T08:31:46;98350.19;;;19.79;100.00
49843;BME280;55559;48.898;9.184;2023-05-09T08:34:13;98347.91;;;19.83;100.00
49843;BME280;55559;48.898;9.184;2023-05-09T08:36:41;98344.72;;;20.07;100.00
49843;BME280;55559;48.898;9.184;2023-05-09T08:39:10;98338.88;;;19.97;100.00
49843;BME280;55559;48.898;9.184;2023-05-09T08:41:38;98338.06;;;19.68;100.00
49843;BME280;55559;48.898;9.184;2023-05-09T08:44:07;98324.38;;;19.70;100.00
49843;BME280;55559;48.898;9.184;2023-05-09T08:46:37;98326.84;;;20.06;100.00
49843;BME280;55559;48.898;9.184;2023-05-09T08:49:08;98324.41;;;20.18;100.00
49843;BME280;55559;48.898;9.184;2023-05-09T08:51:36;98323.25;;;20.41;100.00
49843;BME280;55559;48.898;9.184;2023-05-09T08:54:05;98328.06;;;20.59;100.00
49843;BME280;55559;48.898;9.184;2023-05-09T08:56:34;98329.44;;;20.28;100.00
49843;BME280;55559;48.898;9.184;2023-05-09T08:59:07;98326.13;;;20.33;100.00
49843;BME280;55559;48.898;9.184;2023-05-09T09:01:34;98332.66;;;20.58;100.00
49843;BME280;55559;48.898;9.184;2023-05-09T09:04:04;98320.66;;;20.88;100.00
49843;BME280;55559;48.898;9.184;2023-05-09T09:06:33;98331.47;;;21.14;100.00
49843;BME280;55559;48.898;9.184;2023-05-09T09:09:01;98334.38;;;21.46;100.00
49843;BME280;55559;48.898;9.184;2023-05-09T09:11:35;98329.41;;;21.57;94.43
49843;BME280;55559;48.898;9.184;2023-05-09T09:14:09;98324.59;;;21.59;91.47
49843;BME280;55559;48.898;9.184;2023-05-09T09:16:38;98320.25;;;21.64;92.17
49843;BME280;55559;48.898;9.184;2023-05-09T09:19:10;98311.31;;;21.44;90.21
49843;BME280;55559;48.898;9.184;2023-05-09T09:21:40;98314.03;;;21.30;94.13
49843;BME280;55559;48.898;9.184;2023-05-09T09:24:12;98308.59;;;21.44;90.18
49843;BME280;55559;48.898;9.184;2023-05-09T09:26:45;98307.28;;;21.80;88.66
49843;BME280;55559;48.898;9.184;2023-05-09T09:29:16;98306.38;;;22.06;84.96
49843;BME280;55559;48.898;9.184;2023-05-09T09:31:45;98302.91;;;21.85;88.13
49843;BME280;55559;48.898;9.184;2023-05-09T09:34:19;98301.72;;;21.61;87.13
49843;BME280;55559;48.898;9.184;2023-05-09T09:36:46;98288.13;;;21.88;87.49
49843;BME280;55559;48.898;9.184;2023-05-09T09:39:14;98281.28;;;22.31;83.57
49843;BME280;55559;48.898;9.184;2023-05-09T09:41:46;98277.56;;;22.18;82.08
49843;BME280;55559;48.898;9.184;2023-05-09T09:44:17;98266.19;;;22.03;83.84
49843;BME280;55559;48.898;9.184;2023-05-09T09:46:45;98272.53;;;22.28;79.86
49843;BME280;55559;48.898;9.184;2023-05-09T09:49:14;98270.72;;;22.54;78.09
49843;BME280;55559;48.898;9.184;2023-05-09T09:51:42;98257.16;;;22.86;76.93
49843;BME280;55559;48.898;9.184;2023-05-09T09:54:11;98266.22;;;22.98;74.57
49843;BME280;55559;48.898;9.184;2023-05-09T09:56:40;98254.03;;;22.19;80.25
49843;BME280;55559;48.898;9.184;2023-05-09T09:59:09;98243.97;;;22.33;79.29
49843;BME280;55559;48.898;9.184;2023-05-09T10:01:58;98241.03;;;22.27;77.61
49843;BME280;55559;48.898;9.184;2023-05-09T10:04:32;98237.94;;;22.24;79.24
49843;BME280;55559;48.898;9.184;2023-05-09T10:07:00;98229.59;;;22.25;82.17
49843;BME280;55559;48.898;9.184;2023-05-09T10:09:31;98223.84;;;22.79;77.30
49843;BME280;55559;48.898;9.184;2023-05-09T10:12:01;98215.06;;;22.83;75.42
49843;BME280;55559;48.898;9.184;2023-05-09T10:14:31;98221.47;;;22.64;72.48
49843;BME280;55559;48.898;9.184;2023-05-09T10:17:05;98220.59;;;22.70;72.23
49843;BME280;55559;48.898;9.184;2023-05-09T10:19:34;98207.03;;;22.70;73.39
49843;BME280;55559;48.898;9.184;2023-05-09T10:22:05;98199.31;;;23.17;68.53
49843;BME280;55559;48.898;9.184;2023-05-09T10:24:39;98195.19;;;23.33;69.18
49843;BME280;55559;48.898;9.184;2023-05-09T10:27:09;98197.22;;;23.56;67.14
49843;BME280;55559;48.898;9.184;2023-05-09T10:29:38;98180.94;;;23.19;68.64
49843;BME280;55559;48.898;9.184;2023-05-09T10:32:24;98183.94;;;23.11;69.64
49843;BME280;55559;48.898;9.184;2023-05-09T10:35:03;98187.94;;;23.27;70.11
49843;BME280;55559;48.898;9.184;2023-05-09T10:37:32;98174.19;;;23.96;65.57
49843;BME280;55559;48.898;9.184;2023-05-09T10:40:02;98166.84;;;23.48;67.54
49843;BME280;55559;48.898;9.184;2023-05-09T10:42:30;98174.88;;;23.73;66.60
49843;BME280;55559;48.898;9.184;2023-05-09T10:44:58;98166.50;;;23.74;65.18
49843;BME280;55559;48.898;9.184;2023-05-09T10:47:32;98158.63;;;24.03;62.29
49843;BME280;55559;48.898;9.184;2023-05-09T10:50:00;98171.50;;;23.59;63.63
49843;BME280;55559;48.898;9.184;2023-05-09T10:52:31;98156.97;;;24.02;64.44
49843;BME280;55559;48.898;9.184;2023-05-09T10:55:00;98166.78;;;24.45;59.95
49843;BME280;55559;48.898;9.184;2023-05-09T10:57:29;98158.09;;;24.25;60.09
49843;BME280;55559;48.898;9.184;2023-05-09T10:59:58;98147.72;;;24.33;59.89
49843;BME280;55559;48.898;9.184;2023-05-09T11:02:26;98140.97;;;24.24;61.83
49843;BME280;55559;48.898;9.184;2023-05-09T11:05:14;98135.44;;;24.43;62.68
49843;BME280;55559;48.898;9.184;2023-05-09T11:07:42;98131.22;;;24.59;62.14
49843;BME280;55559;48.898;9.184;2023-05-09T11:10:14;98126.53;;;24.78;59.84
49843;BME280;55559;48.898;9.184;2023-05-09T11:12:51;98127.81;;;24.87;59.65
49843;BME280;55559;48.898;9.184;2023-05-09T11:15:20;98119.97;;;24.43;61.96
49843;BME280;55559;48.898;9.184;2023-05-09T11:17:50;98115.41;;;24.79;60.54
49843;BME280;55559;48.898;9.184;2023-05-09T11:20:34;98108.66;;;24.70;61.85
49843;BME280;55559;48.898;9.184;2023-05-09T11:23:03;98100.38;;;24.77;61.03
49843;BME280;55559;48.898;9.184;2023-05-09T11:25:31;98096.91;;;24.34;59.99
49843;BME280;55559;48.898;9.184;2023-05-09T11:28:00;98096.72;;;24.71;60.83
49843;BME280;55559;48.898;9.184;2023-05-09T11:30:39;98091.25;;;24.95;60.45
49843;BME280;55559;48.898;9.184;2023-05-09T11:33:20;98080.19;;;24.73;59.46
49843;BME280;55559;48.898;9.184;2023-05-09T11:36:19;98081.22;;;24.48;59.34
49843;BME280;55559;48.898;9.184;2023-05-09T11:39:05;98076.03;;;24.70;61.21
49843;BME280;55559;48.898;9.184;2023-05-09T11:42:09;98076.28;;;23.91;62.13
49843;BME280;55559;48.898;9.184;2023-05-09T11:44:38;98066.34;;;24.50;60.88
49843;BME280;55559;48.898;9.184;2023-05-09T11:47:06;98063.84;;;24.49;61.09
49843;BME280;55559;48.898;9.184;2023-05-09T11:49:35;98065.09;;;23.99;64.32
49843;BME280;55559;48.898;9.184;2023-05-09T11:52:06;98050.91;;;23.97;64.08
49843;BME280;55559;48.898;9.184;2023-05-09T11:54:36;98045.28;;;24.34;60.69
49843;BME280;55559;48.898;9.184;2023-05-09T11:57:04;98051.53;;;24.46;60.34
49843;BME280;55559;48.898;9.184;2023-05-09T11:59:32;98039.19;;;24.62;59.84
49843;BME280;55559;48.898;9.184;2023-05-09T12:02:02;98040.78;;;24.40;60.04
49843;BME280;55559;48.898;9.184;2023-05-09T12:04:30;98043.38;;;24.11;61.43
49843;BME280;55559;48.898;9.184;2023-05-09T12:06:58;98037.00;;;24.52;61.58
49843;BME280;55559;48.898;9.184;2023-05-09T12:09:30;98030.63;;;24.35;60.10
49843;BME280;55559;48.898;9.184;2023-05-09T12:11:58;98029.56;;;24.72;57.65
49843;BME280;55559;48.898;9.184;2023-05-09T12:14:27;98018.00;;;24.76;59.52
49843;BME280;55559;48.898;9.184;2023-05-09T12:16:54;98015.97;;;24.48;60.47
49843;BME280;55559;48.898;9.184;2023-05-09T12:19:22;98011.47;;;24.42;60.90
49843;BME280;55559;48.898;9.184;2023-05-09T12:21:54;98011.13;;;24.50;62.84
49843;BME280;55559;48.898;9.184;2023-05-09T12:24:23;98003.31;;;24.42;60.75
49843;BME280;55559;48.898;9.184;2023-05-09T12:26:54;98008.16;;;24.75;59.35
49843;BME280;55559;48.898;9.184;2023-05-09T12:29:22;97998.97;;;24.76;58.44
49843;BME280;55559;48.898;9.184;2023-05-09T12:31:51;97988.09;;;24.76;58.42
49843;BME280;55559;48.898;9.184;2023-05-09T12:34:19;97982.22;;;24.56;57.48
49843;BME280;55559;48.898;9.184;2023-05-09T12:36:46;97986.22;;;24.18;61.35
49843;BME280;55559;48.898;9.184;2023-05-09T12:39:16;97982.09;;;24.27;59.93
49843;BME280;55559;48.898;9.184;2023-05-09T12:41:50;97985.38;;;24.41;57.44
49843;BME280;55559;48.898;9.184;2023-05-09T12:44:20;97974.28;;;24.54;58.03
49843;BME280;55559;48.898;9.184;2023-05-09T12:46:55;97969.06;;;24.64;60.24
49843;BME280;55559;48.898;9.184;2023-05-09T12:49:24;97968.50;;;24.62;59.84
49843;BME280;55559;48.898;9.184;2023-05-09T12:51:52;97964.59;;;24.35;60.59
49843;BME280;55559;48.898;9.184;2023-05-09T12:54:21;97966.84;;;23.90;63.71
49843;BME280;55559;48.898;9.184;2023-05-09T12:56:49;97948.06;;;24.36;62.75
49843;BME280;55559;48.898;9.184;2023-05-09T12:59:24;97946.56;;;24.81;60.36
49843;BME280;55559;48.898;9.184;2023-05-09T13:01:55;97944.88;;;24.39;61.69
49843;BME280;55559;48.898;9.184;2023-05-09T13:04:24;97940.59;;;24.31;62.53
49843;BME280;55559;48.898;9.184;2023-05-09T13:06:54;97943.75;;;24.64;61.80
49843;BME280;55559;48.898;9.184;2023-05-09T13:09:23;97925.72;;;24.58;61.16